createdAt,value
2016-02-01T19:06:06.533Z,54.23
2016-02-01T19:07:06.473Z,53.94
2016-02-01T19:08:06.459Z,53.56
2016-02-01T19:09:06.385Z,53.66
2016-02-01T19:10:06.325Z,53.56
2016-02-01T19:11:06.280Z,53.75
2016-02-01T19:12:06.236Z,53.66
2016-02-01T19:13:06.179Z,53.85
2016-02-01T19:14:06.134Z,53.91
2016-02-01T19:15:06.106Z,53.82
2016-02-01T19:16:06.030Z,54.23
2016-02-01T19:17:05.985Z,53.66
2016-02-01T19:18:05.943Z,53.72
2016-02-01T19:19:05.898Z,53.75
2016-02-01T19:20:05.838Z,53.75
2016-02-01T19:21:05.810Z,53.53
2016-02-01T19:22:05.752Z,53.75
2016-02-01T19:23:05.708Z,53.75
2016-02-01T19:24:05.648Z,53.85
2016-02-01T19:25:05.620Z,54.21
2016-02-01T19:26:05.576Z,53.56
2016-02-01T19:27:05.521Z,53.85
2016-02-01T19:28:05.476Z,53.27
2016-02-01T19:29:05.417Z,53.17
2016-02-01T19:30:05.390Z,53.17
2016-02-01T19:31:05.331Z,53.46
2016-02-01T19:32:05.286Z,53.46
2016-02-01T19:33:05.242Z,53.75
2016-02-01T19:34:05.198Z,54.13
2016-02-01T19:35:05.153Z,54.13
2016-02-01T19:36:05.094Z,54.23
2016-02-01T19:37:05.049Z,54.23
2016-02-01T19:38:05.021Z,53.85
2016-02-01T19:39:04.964Z,54.04
2016-02-01T19:40:04.919Z,54.23
2016-02-01T19:41:04.876Z,53.75
2016-02-01T19:42:04.832Z,54.13
2016-02-01T19:43:04.773Z,53.85
2016-02-01T19:44:04.729Z,53.75
2016-02-01T19:45:04.684Z,53.94
2016-02-01T19:46:04.640Z,53.75
2016-02-01T19:47:04.596Z,53.75
2016-02-01T19:48:04.537Z,53.85
2016-02-01T19:49:04.493Z,54.04
2016-02-01T19:50:04.449Z,54.23
2016-02-01T19:51:04.404Z,53.85
2016-02-01T19:52:04.360Z,53.94
2016-02-01T19:53:04.317Z,54.33
2016-02-01T19:54:04.272Z,54.23
2016-02-01T19:55:04.228Z,53.94
2016-02-01T19:56:04.184Z,54.42
2016-02-01T19:57:04.124Z,54.42
2016-02-01T19:58:04.095Z,54.42
2016-02-01T19:59:04.052Z,53.56
2016-02-01T20:00:04.009Z,54.42
2016-02-01T20:01:03.951Z,54.13
2016-02-01T20:02:03.906Z,54.33
2016-02-01T20:03:03.861Z,54.42
2016-02-01T20:04:03.820Z,53.94
2016-02-01T20:05:03.776Z,54.13
2016-02-01T20:06:03.732Z,54.04
2016-02-01T20:07:03.688Z,53.97
2016-02-01T20:08:03.628Z,54.25
2016-02-01T20:09:03.586Z,53.97
2016-02-01T20:10:03.541Z,53.87
2016-02-01T20:11:03.497Z,54.06
2016-02-01T20:12:03.454Z,54.04
2016-02-01T20:13:03.410Z,54.33
2016-02-01T20:14:03.365Z,54.23
2016-02-01T20:15:03.305Z,54.45
2016-02-01T20:16:03.261Z,54.06
2016-02-01T20:17:03.217Z,54.06
2016-02-01T20:18:03.173Z,54.35
2016-02-01T20:19:03.129Z,53.97
2016-02-01T20:20:03.085Z,54.04
2016-02-01T20:21:03.041Z,54.35
2016-02-01T20:22:02.996Z,54.33
2016-02-01T20:23:02.952Z,53.97
2016-02-01T20:24:02.908Z,54.06
2016-02-01T20:25:02.865Z,54.25
2016-02-01T20:26:02.822Z,54.25
2016-02-01T20:27:02.762Z,54.25
2016-02-01T20:28:02.717Z,54.35
2016-02-01T20:29:02.692Z,53.97
2016-02-01T20:30:02.632Z,54.55
2016-02-01T20:31:02.589Z,54.55
2016-02-01T20:32:02.670Z,53.87
2016-02-01T20:33:02.500Z,54.64
2016-02-01T20:34:02.458Z,54.45
2016-02-01T20:35:02.414Z,54.45
2016-02-01T20:36:02.369Z,54.45
2016-02-01T20:37:02.325Z,53.87
2016-02-01T20:38:02.281Z,54.16
2016-02-01T20:39:02.676Z,54.25
2016-02-01T20:40:02.178Z,54.25
2016-02-01T20:41:02.135Z,53.78
2016-02-01T20:42:02.090Z,54.25
2016-02-01T20:43:02.062Z,53.78
2016-02-01T20:44:02.002Z,53.78
2016-02-01T20:45:01.958Z,53.68
2016-02-01T20:46:01.929Z,53.78
2016-02-01T20:47:01.870Z,53.78
2016-02-01T20:48:01.826Z,53.78
2016-02-01T20:49:01.781Z,53.58
2016-02-01T20:50:01.738Z,53.87
2016-02-01T20:51:01.694Z,53.87
2016-02-01T20:52:01.650Z,54.25
2016-02-01T20:53:01.606Z,53.87
2016-02-01T20:54:01.561Z,54.16
2016-02-01T20:55:01.504Z,53.87
2016-02-01T20:56:01.490Z,54.25
2016-02-01T20:57:01.431Z,53.97
2016-02-01T20:58:01.386Z,53.97
2016-02-01T20:59:01.328Z,53.87
2016-02-01T21:00:01.315Z,53.97
2016-02-01T21:01:01.256Z,53.78
2016-02-01T21:02:01.197Z,53.87
2016-02-01T21:03:01.153Z,53.97
2016-02-01T21:04:01.156Z,53.97
2016-02-01T21:05:01.064Z,53.87
2016-02-01T21:06:01.020Z,53.97
2016-02-01T21:07:00.977Z,53.97
2016-02-01T21:08:00.933Z,53.87
2016-02-01T21:09:00.888Z,54.16
2016-02-01T21:10:00.844Z,54.16
2016-02-01T21:11:00.802Z,53.97
2016-02-01T21:12:00.758Z,53.97
2016-02-01T21:13:00.713Z,54.06
2016-02-01T21:14:00.671Z,53.97
2016-02-01T21:15:00.627Z,53.97
2016-02-01T21:16:00.584Z,53.97
2016-02-01T21:17:00.540Z,53.87
2016-02-01T21:18:00.495Z,53.87
2016-02-01T21:19:00.467Z,54.06
2016-02-01T21:20:00.400Z,53.97
2016-02-01T21:21:00.357Z,53.9
2016-02-01T21:22:00.328Z,54.19
2016-02-01T21:23:00.268Z,53.9
2016-02-01T21:24:00.225Z,54.16
2016-02-01T21:25:00.180Z,54.16
2016-02-01T21:26:00.136Z,54.19
2016-02-01T21:27:00.091Z,54.28
2016-02-01T21:28:00.047Z,54
2016-02-01T21:29:00.003Z,54
2016-02-01T21:29:59.959Z,54.28
2016-02-01T21:30:59.917Z,54.28
2016-02-01T21:31:59.874Z,53.9
2016-02-01T21:32:59.830Z,53.9
2016-02-01T21:33:59.800Z,53.8
2016-02-01T21:34:59.757Z,54
2016-02-01T21:35:59.700Z,53.8
2016-02-01T21:36:59.656Z,53.9
2016-02-01T21:37:59.611Z,53.9
2016-02-01T21:38:59.567Z,53.32
2016-02-01T21:39:59.524Z,53.32
2016-02-01T21:40:59.465Z,53.13
2016-02-01T21:41:59.437Z,52.77
2016-02-01T21:42:59.440Z,52.48
2016-02-01T21:43:59.349Z,52.77
2016-02-01T21:44:59.304Z,52.48
2016-02-01T21:45:59.247Z,52.39
2016-02-01T21:46:59.202Z,52.2
2016-02-01T21:47:59.160Z,52.39
2016-02-01T21:48:59.116Z,52.77
2016-02-01T21:49:59.072Z,52.48
2016-02-01T21:50:59.027Z,53.42
2016-02-01T21:51:58.982Z,53.06
2016-02-01T21:52:58.940Z,53.32
2016-02-01T21:53:58.895Z,53.13
2016-02-01T21:54:58.852Z,53.7
2016-02-01T21:55:58.807Z,53.8
2016-02-01T21:56:58.749Z,54.19
2016-02-01T21:57:58.721Z,53.9
2016-02-01T21:58:58.677Z,54
2016-02-01T21:59:58.632Z,54.47
2016-02-01T22:00:58.590Z,54
2016-02-01T22:01:58.547Z,54.19
2016-02-01T22:02:58.503Z,54.09
2016-02-01T22:03:58.459Z,54.28
2016-02-01T22:04:58.415Z,54.28
2016-02-01T22:05:58.355Z,54.28
2016-02-01T22:06:58.310Z,54.67
2016-02-01T22:07:58.266Z,54.47
2016-02-01T22:08:58.237Z,54.28
2016-02-01T22:09:58.194Z,54.28
2016-02-01T22:10:58.150Z,54.38
2016-02-01T22:11:58.089Z,54.57
2016-02-01T22:12:58.061Z,54.28
2016-02-01T22:13:58.000Z,54.19
